Scandia, Minnesota
Current Conditions -  °F | °C
As of 2:55 AM on Wednesday 26 Nov 2014 (Local Time) from KOEO Reporting Station
Overcast Overcast  
Wind Chill: 18°   Ceiling: 6000
Heat Index: 24°   Visibility: 10mi
Dew Point: 17°   Wind: 5mph
Humidity: 75%   Direction: 80°E
Pressure: 30.09"   Gusts: NA
Location:  45.25°N, 92.81°W
Report Text: KOEO 260855Z AUTO 08004KT 10SM BKN060 BKN070 OVC110 M04/M08 A3009 RMK AO2 T10451083
Loading
Personal Weather Stations






























Interactive Weather Map New forecast layout! Learn more

10-Day Weather Forecast

Advertisements
Track Severe Weather on mobile